sensor_id;sensor_type;location;lat;lon;timestamp;P1;durP1;ratioP1;P2;durP2;ratioP2
18140;SDS011;9196;49.194;12.526;2022-08-30T00:01:57;10.40;;;7.97;;
18140;SDS011;9196;49.194;12.526;2022-08-30T00:04:23;7.63;;;6.93;;
18140;SDS011;9196;49.194;12.526;2022-08-30T00:06:51;9.50;;;8.50;;
18140;SDS011;9196;49.194;12.526;2022-08-30T00:09:18;11.30;;;8.13;;
18140;SDS011;9196;49.194;12.526;2022-08-30T00:11:45;9.27;;;8.23;;
18140;SDS011;9196;49.194;12.526;2022-08-30T00:14:12;8.67;;;7.80;;
18140;SDS011;9196;49.194;12.526;2022-08-30T00:16:38;9.60;;;7.47;;
18140;SDS011;9196;49.194;12.526;2022-08-30T00:19:05;14.93;;;8.17;;
18140;SDS011;9196;49.194;12.526;2022-08-30T00:21:32;9.90;;;7.97;;
18140;SDS011;9196;49.194;12.526;2022-08-30T00:24:00;10.27;;;9.00;;
18140;SDS011;9196;49.194;12.526;2022-08-30T00:26:28;17.60;;;9.03;;
18140;SDS011;9196;49.194;12.526;2022-08-30T00:28:55;8.87;;;7.70;;
18140;SDS011;9196;49.194;12.526;2022-08-30T00:31:22;9.40;;;8.50;;
18140;SDS011;9196;49.194;12.526;2022-08-30T00:33:49;10.03;;;7.53;;
18140;SDS011;9196;49.194;12.526;2022-08-30T00:36:16;9.50;;;8.00;;
18140;SDS011;9196;49.194;12.526;2022-08-30T00:38:43;12.10;;;8.47;;
18140;SDS011;9196;49.194;12.526;2022-08-30T00:41:11;9.20;;;8.30;;
18140;SDS011;9196;49.194;12.526;2022-08-30T00:43:38;8.80;;;8.07;;
18140;SDS011;9196;49.194;12.526;2022-08-30T00:46:05;13.93;;;8.90;;
18140;SDS011;9196;49.194;12.526;2022-08-30T00:48:35;11.33;;;8.40;;
18140;SDS011;9196;49.194;12.526;2022-08-30T00:51:06;9.40;;;8.50;;
18140;SDS011;9196;49.194;12.526;2022-08-30T00:53:36;9.77;;;8.50;;
18140;SDS011;9196;49.194;12.526;2022-08-30T00:56:06;9.33;;;8.40;;
18140;SDS011;9196;49.194;12.526;2022-08-30T00:58:35;8.37;;;7.60;;
18140;SDS011;9196;49.194;12.526;2022-08-30T01:01:03;9.40;;;8.20;;
18140;SDS011;9196;49.194;12.526;2022-08-30T01:03:33;9.27;;;8.13;;
18140;SDS011;9196;49.194;12.526;2022-08-30T01:06:01;9.10;;;8.27;;
18140;SDS011;9196;49.194;12.526;2022-08-30T01:08:29;13.63;;;8.33;;
18140;SDS011;9196;49.194;12.526;2022-08-30T01:10:55;12.07;;;8.37;;
18140;SDS011;9196;49.194;12.526;2022-08-30T01:13:25;9.60;;;8.57;;
18140;SDS011;9196;49.194;12.526;2022-08-30T01:15:54;9.43;;;8.10;;
18140;SDS011;9196;49.194;12.526;2022-08-30T01:18:23;9.43;;;8.40;;
18140;SDS011;9196;49.194;12.526;2022-08-30T01:20:51;8.50;;;7.53;;
18140;SDS011;9196;49.194;12.526;2022-08-30T01:23:25;10.97;;;8.80;;
18140;SDS011;9196;49.194;12.526;2022-08-30T01:25:53;9.47;;;8.47;;
18140;SDS011;9196;49.194;12.526;2022-08-30T01:28:22;8.60;;;7.80;;
18140;SDS011;9196;49.194;12.526;2022-08-30T01:30:50;11.83;;;8.20;;
18140;SDS011;9196;49.194;12.526;2022-08-30T01:33:17;11.73;;;7.47;;
18140;SDS011;9196;49.194;12.526;2022-08-30T01:35:47;9.03;;;8.13;;
18140;SDS011;9196;49.194;12.526;2022-08-30T01:38:17;8.20;;;7.40;;
18140;SDS011;9196;49.194;12.526;2022-08-30T01:40:47;9.00;;;8.20;;
18140;SDS011;9196;49.194;12.526;2022-08-30T01:43:14;10.87;;;8.47;;
18140;SDS011;9196;49.194;12.526;2022-08-30T01:45:43;10.53;;;9.43;;
18140;SDS011;9196;49.194;12.526;2022-08-30T01:48:10;9.67;;;8.00;;
18140;SDS011;9196;49.194;12.526;2022-08-30T01:50:37;8.93;;;8.13;;
18140;SDS011;9196;49.194;12.526;2022-08-30T01:53:04;8.90;;;7.83;;
18140;SDS011;9196;49.194;12.526;2022-08-30T01:55:31;9.67;;;7.80;;
18140;SDS011;9196;49.194;12.526;2022-08-30T01:57:59;11.83;;;7.97;;
18140;SDS011;9196;49.194;12.526;2022-08-30T02:00:26;8.93;;;7.80;;
18140;SDS011;9196;49.194;12.526;2022-08-30T02:02:54;9.90;;;8.43;;
18140;SDS011;9196;49.194;12.526;2022-08-30T02:05:22;10.87;;;8.70;;
18140;SDS011;9196;49.194;12.526;2022-08-30T02:07:49;10.00;;;8.27;;
18140;SDS011;9196;49.194;12.526;2022-08-30T02:10:16;10.40;;;8.20;;
18140;SDS011;9196;49.194;12.526;2022-08-30T02:12:42;9.63;;;7.77;;
18140;SDS011;9196;49.194;12.526;2022-08-30T02:15:11;12.53;;;8.23;;
18140;SDS011;9196;49.194;12.526;2022-08-30T02:17:37;9.90;;;7.80;;
18140;SDS011;9196;49.194;12.526;2022-08-30T02:20:06;8.40;;;7.60;;
18140;SDS011;9196;49.194;12.526;2022-08-30T02:22:33;8.10;;;7.17;;
18140;SDS011;9196;49.194;12.526;2022-08-30T02:25:00;9.23;;;8.43;;
18140;SDS011;9196;49.194;12.526;2022-08-30T02:27:27;12.80;;;8.30;;
18140;SDS011;9196;49.194;12.526;2022-08-30T02:29:54;10.83;;;8.40;;
18140;SDS011;9196;49.194;12.526;2022-08-30T02:32:22;14.13;;;8.47;;
18140;SDS011;9196;49.194;12.526;2022-08-30T02:34:49;8.70;;;7.90;;
18140;SDS011;9196;49.194;12.526;2022-08-30T02:37:16;10.10;;;8.00;;
18140;SDS011;9196;49.194;12.526;2022-08-30T02:39:44;10.53;;;8.23;;
18140;SDS011;9196;49.194;12.526;2022-08-30T02:42:11;12.33;;;8.20;;
18140;SDS011;9196;49.194;12.526;2022-08-30T02:44:37;8.77;;;7.97;;
18140;SDS011;9196;49.194;12.526;2022-08-30T02:47:05;10.73;;;7.13;;
18140;SDS011;9196;49.194;12.526;2022-08-30T02:49:33;10.60;;;8.63;;
18140;SDS011;9196;49.194;12.526;2022-08-30T02:52:02;13.37;;;8.97;;
18140;SDS011;9196;49.194;12.526;2022-08-30T02:54:30;10.03;;;7.90;;
18140;SDS011;9196;49.194;12.526;2022-08-30T02:56:58;10.50;;;7.77;;
18140;SDS011;9196;49.194;12.526;2022-08-30T02:59:28;13.57;;;8.47;;
18140;SDS011;9196;49.194;12.526;2022-08-30T03:01:55;9.90;;;8.67;;
18140;SDS011;9196;49.194;12.526;2022-08-30T03:04:22;17.50;;;8.10;;
18140;SDS011;9196;49.194;12.526;2022-08-30T03:06:50;9.07;;;8.00;;
18140;SDS011;9196;49.194;12.526;2022-08-30T03:09:17;9.40;;;8.40;;
18140;SDS011;9196;49.194;12.526;2022-08-30T03:11:44;10.53;;;8.57;;
18140;SDS011;9196;49.194;12.526;2022-08-30T03:14:11;9.93;;;7.67;;
18140;SDS011;9196;49.194;12.526;2022-08-30T03:16:38;11.30;;;9.50;;
18140;SDS011;9196;49.194;12.526;2022-08-30T03:19:04;11.83;;;8.80;;
18140;SDS011;9196;49.194;12.526;2022-08-30T03:21:31;12.63;;;8.70;;
18140;SDS011;9196;49.194;12.526;2022-08-30T03:23:59;8.30;;;7.60;;
18140;SDS011;9196;49.194;12.526;2022-08-30T03:26:26;10.93;;;7.90;;
18140;SDS011;9196;49.194;12.526;2022-08-30T03:28:53;10.10;;;9.10;;
18140;SDS011;9196;49.194;12.526;2022-08-30T03:31:19;9.20;;;8.30;;
18140;SDS011;9196;49.194;12.526;2022-08-30T03:33:46;14.87;;;9.57;;
18140;SDS011;9196;49.194;12.526;2022-08-30T03:36:13;8.30;;;7.40;;
18140;SDS011;9196;49.194;12.526;2022-08-30T03:38:40;8.13;;;7.43;;
18140;SDS011;9196;49.194;12.526;2022-08-30T03:41:08;10.67;;;7.10;;
18140;SDS011;9196;49.194;12.526;2022-08-30T03:43:35;9.87;;;7.97;;
18140;SDS011;9196;49.194;12.526;2022-08-30T03:46:02;8.00;;;7.10;;
18140;SDS011;9196;49.194;12.526;2022-08-30T03:48:29;12.37;;;8.03;;
18140;SDS011;9196;49.194;12.526;2022-08-30T03:50:56;9.50;;;8.60;;
18140;SDS011;9196;49.194;12.526;2022-08-30T03:53:23;9.13;;;8.23;;
18140;SDS011;9196;49.194;12.526;2022-08-30T03:55:49;8.93;;;7.50;;
18140;SDS011;9196;49.194;12.526;2022-08-30T03:58:17;9.73;;;8.70;;
18140;SDS011;9196;49.194;12.526;2022-08-30T04:00:44;8.33;;;7.60;;
18140;SDS011;9196;49.194;12.526;2022-08-30T04:03:11;9.67;;;7.53;;
18140;SDS011;9196;49.194;12.526;2022-08-30T04:05:38;14.10;;;8.77;;
18140;SDS011;9196;49.194;12.526;2022-08-30T04:08:05;10.77;;;7.90;;
18140;SDS011;9196;49.194;12.526;2022-08-30T04:10:32;14.60;;;8.20;;
18140;SDS011;9196;49.194;12.526;2022-08-30T04:12:59;11.40;;;8.43;;
18140;SDS011;9196;49.194;12.526;2022-08-30T04:15:27;14.00;;;8.10;;
18140;SDS011;9196;49.194;12.526;2022-08-30T04:17:54;12.30;;;9.33;;
18140;SDS011;9196;49.194;12.526;2022-08-30T04:20:21;19.13;;;7.30;;
18140;SDS011;9196;49.194;12.526;2022-08-30T04:22:48;17.07;;;11.90;;
18140;SDS011;9196;49.194;12.526;2022-08-30T04:25:15;13.67;;;9.03;;
18140;SDS011;9196;49.194;12.526;2022-08-30T04:27:42;8.40;;;7.60;;
18140;SDS011;9196;49.194;12.526;2022-08-30T04:30:09;11.80;;;7.47;;
18140;SDS011;9196;49.194;12.526;2022-08-30T04:32:38;10.17;;;7.73;;
18140;SDS011;9196;49.194;12.526;2022-08-30T04:35:05;10.83;;;8.23;;
18140;SDS011;9196;49.194;12.526;2022-08-30T04:37:33;17.20;;;7.63;;
18140;SDS011;9196;49.194;12.526;2022-08-30T04:40:00;8.67;;;7.53;;
18140;SDS011;9196;49.194;12.526;2022-08-30T04:42:27;10.23;;;8.10;;
18140;SDS011;9196;49.194;12.526;2022-08-30T04:45:00;11.30;;;8.07;;
18140;SDS011;9196;49.194;12.526;2022-08-30T04:47:29;16.93;;;9.30;;
18140;SDS011;9196;49.194;12.526;2022-08-30T04:49:57;15.77;;;8.97;;
18140;SDS011;9196;49.194;12.526;2022-08-30T04:52:24;11.53;;;8.50;;
18140;SDS011;9196;49.194;12.526;2022-08-30T04:54:52;8.83;;;7.80;;
18140;SDS011;9196;49.194;12.526;2022-08-30T04:57:19;9.00;;;7.60;;
18140;SDS011;9196;49.194;12.526;2022-08-30T04:59:46;10.57;;;7.43;;
18140;SDS011;9196;49.194;12.526;2022-08-30T05:02:13;10.30;;;7.60;;
18140;SDS011;9196;49.194;12.526;2022-08-30T05:04:40;10.40;;;8.00;;
18140;SDS011;9196;49.194;12.526;2022-08-30T05:07:28;10.40;;;8.80;;
18140;SDS011;9196;49.194;12.526;2022-08-30T05:09:56;11.40;;;8.77;;
18140;SDS011;9196;49.194;12.526;2022-08-30T05:12:23;11.20;;;8.43;;
18140;SDS011;9196;49.194;12.526;2022-08-30T05:14:51;7.30;;;6.60;;
18140;SDS011;9196;49.194;12.526;2022-08-30T05:17:18;17.73;;;7.60;;
18140;SDS011;9196;49.194;12.526;2022-08-30T05:19:45;11.90;;;8.80;;
18140;SDS011;9196;49.194;12.526;2022-08-30T05:22:12;15.70;;;8.50;;
18140;SDS011;9196;49.194;12.526;2022-08-30T05:24:40;11.40;;;8.77;;
18140;SDS011;9196;49.194;12.526;2022-08-30T05:27:06;12.40;;;8.87;;
18140;SDS011;9196;49.194;12.526;2022-08-30T05:29:33;13.30;;;9.27;;
18140;SDS011;9196;49.194;12.526;2022-08-30T05:32:00;11.20;;;7.70;;
18140;SDS011;9196;49.194;12.526;2022-08-30T05:34:28;12.27;;;9.20;;
18140;SDS011;9196;49.194;12.526;2022-08-30T05:36:55;11.23;;;8.30;;
18140;SDS011;9196;49.194;12.526;2022-08-30T05:39:22;16.53;;;8.50;;
18140;SDS011;9196;49.194;12.526;2022-08-30T05:41:50;8.83;;;7.93;;
18140;SDS011;9196;49.194;12.526;2022-08-30T05:44:20;9.27;;;8.37;;
18140;SDS011;9196;49.194;12.526;2022-08-30T05:46:47;16.27;;;8.70;;
18140;SDS011;9196;49.194;12.526;2022-08-30T05:49:14;12.43;;;9.17;;
18140;SDS011;9196;49.194;12.526;2022-08-30T05:51:41;12.37;;;7.50;;
18140;SDS011;9196;49.194;12.526;2022-08-30T05:54:08;9.50;;;8.50;;
18140;SDS011;9196;49.194;12.526;2022-08-30T05:56:36;10.83;;;7.60;;
18140;SDS011;9196;49.194;12.526;2022-08-30T05:59:06;11.30;;;7.07;;
18140;SDS011;9196;49.194;12.526;2022-08-30T06:01:34;8.50;;;7.23;;
18140;SDS011;9196;49.194;12.526;2022-08-30T06:04:03;8.23;;;7.43;;
18140;SDS011;9196;49.194;12.526;2022-08-30T06:06:32;9.50;;;8.03;;
18140;SDS011;9196;49.194;12.526;2022-08-30T06:09:01;11.70;;;7.70;;
18140;SDS011;9196;49.194;12.526;2022-08-30T06:11:29;11.87;;;7.20;;
18140;SDS011;9196;49.194;12.526;2022-08-30T06:13:55;13.03;;;7.77;;
18140;SDS011;9196;49.194;12.526;2022-08-30T06:16:24;10.03;;;8.60;;
18140;SDS011;9196;49.194;12.526;2022-08-30T06:18:53;10.33;;;6.50;;
18140;SDS011;9196;49.194;12.526;2022-08-30T06:21:22;8.93;;;6.30;;
18140;SDS011;9196;49.194;12.526;2022-08-30T06:23:53;9.73;;;6.33;;
18140;SDS011;9196;49.194;12.526;2022-08-30T06:26:20;9.50;;;6.30;;
18140;SDS011;9196;49.194;12.526;2022-08-30T06:28:47;10.50;;;6.43;;
18140;SDS011;9196;49.194;12.526;2022-08-30T06:31:15;10.70;;;6.30;;
18140;SDS011;9196;49.194;12.526;2022-08-30T06:33:44;12.73;;;6.20;;
18140;SDS011;9196;49.194;12.526;2022-08-30T06:36:13;8.23;;;7.10;;
18140;SDS011;9196;49.194;12.526;2022-08-30T06:38:43;11.17;;;6.50;;
18140;SDS011;9196;49.194;12.526;2022-08-30T06:41:11;17.60;;;7.80;;
18140;SDS011;9196;49.194;12.526;2022-08-30T06:43:39;7.60;;;6.80;;
18140;SDS011;9196;49.194;12.526;2022-08-30T06:46:07;11.10;;;7.90;;
18140;SDS011;9196;49.194;12.526;2022-08-30T06:48:41;11.87;;;7.90;;
18140;SDS011;9196;49.194;12.526;2022-08-30T06:51:09;10.33;;;7.03;;
18140;SDS011;9196;49.194;12.526;2022-08-30T06:53:36;10.77;;;6.90;;
18140;SDS011;9196;49.194;12.526;2022-08-30T06:56:04;7.63;;;6.33;;
18140;SDS011;9196;49.194;12.526;2022-08-30T06:58:33;11.30;;;6.53;;
18140;SDS011;9196;49.194;12.526;2022-08-30T07:01:01;11.57;;;7.87;;
18140;SDS011;9196;49.194;12.526;2022-08-30T07:03:28;9.23;;;6.33;;
18140;SDS011;9196;49.194;12.526;2022-08-30T07:05:55;9.60;;;7.40;;
18140;SDS011;9196;49.194;12.526;2022-08-30T07:08:23;13.67;;;7.03;;
18140;SDS011;9196;49.194;12.526;2022-08-30T07:10:51;7.47;;;6.03;;
18140;SDS011;9196;49.194;12.526;2022-08-30T07:13:19;11.13;;;6.93;;
18140;SDS011;9196;49.194;12.526;2022-08-30T07:15:46;9.00;;;8.03;;
18140;SDS011;9196;49.194;12.526;2022-08-30T07:18:13;16.70;;;8.37;;
18140;SDS011;9196;49.194;12.526;2022-08-30T07:20:58;10.67;;;7.57;;
18140;SDS011;9196;49.194;12.526;2022-08-30T07:23:32;11.27;;;8.20;;
18140;SDS011;9196;49.194;12.526;2022-08-30T07:26:01;8.20;;;7.00;;
18140;SDS011;9196;49.194;12.526;2022-08-30T07:28:29;7.40;;;6.70;;
18140;SDS011;9196;49.194;12.526;2022-08-30T07:30:56;9.37;;;6.43;;
18140;SDS011;9196;49.194;12.526;2022-08-30T07:33:23;14.07;;;7.50;;
18140;SDS011;9196;49.194;12.526;2022-08-30T07:35:49;15.00;;;7.43;;
18140;SDS011;9196;49.194;12.526;2022-08-30T07:38:16;16.20;;;7.00;;
18140;SDS011;9196;49.194;12.526;2022-08-30T07:40:44;9.97;;;7.33;;
18140;SDS011;9196;49.194;12.526;2022-08-30T07:43:11;10.30;;;7.33;;
18140;SDS011;9196;49.194;12.526;2022-08-30T07:45:38;7.80;;;7.00;;
18140;SDS011;9196;49.194;12.526;2022-08-30T07:48:05;12.20;;;7.37;;
18140;SDS011;9196;49.194;12.526;2022-08-30T07:50:32;9.77;;;7.13;;
18140;SDS011;9196;49.194;12.526;2022-08-30T07:52:59;13.40;;;8.60;;
18140;SDS011;9196;49.194;12.526;2022-08-30T07:55:26;10.10;;;7.27;;
18140;SDS011;9196;49.194;12.526;2022-08-30T07:57:54;14.07;;;8.80;;
18140;SDS011;9196;49.194;12.526;2022-08-30T08:00:21;15.13;;;8.00;;
18140;SDS011;9196;49.194;12.526;2022-08-30T08:02:47;7.40;;;6.37;;
18140;SDS011;9196;49.194;12.526;2022-08-30T08:05:14;9.20;;;7.67;;
18140;SDS011;9196;49.194;12.526;2022-08-30T08:07:41;10.00;;;6.87;;
18140;SDS011;9196;49.194;12.526;2022-08-30T08:10:08;7.70;;;6.70;;
18140;SDS011;9196;49.194;12.526;2022-08-30T08:12:37;13.67;;;7.03;;
18140;SDS011;9196;49.194;12.526;2022-08-30T08:15:06;7.33;;;6.60;;
18140;SDS011;9196;49.194;12.526;2022-08-30T08:17:33;13.63;;;6.17;;
18140;SDS011;9196;49.194;12.526;2022-08-30T08:20:00;10.00;;;6.83;;
18140;SDS011;9196;49.194;12.526;2022-08-30T08:22:27;6.90;;;6.20;;
18140;SDS011;9196;49.194;12.526;2022-08-30T08:24:54;8.33;;;7.13;;
18140;SDS011;9196;49.194;12.526;2022-08-30T08:27:20;9.67;;;7.40;;
18140;SDS011;9196;49.194;12.526;2022-08-30T08:29:48;11.60;;;7.57;;
18140;SDS011;9196;49.194;12.526;2022-08-30T08:32:16;17.03;;;8.33;;
18140;SDS011;9196;49.194;12.526;2022-08-30T08:34:43;10.60;;;7.43;;
18140;SDS011;9196;49.194;12.526;2022-08-30T08:37:10;12.80;;;7.40;;
18140;SDS011;9196;49.194;12.526;2022-08-30T08:39:37;12.93;;;7.00;;
18140;SDS011;9196;49.194;12.526;2022-08-30T08:42:04;9.77;;;8.10;;
18140;SDS011;9196;49.194;12.526;2022-08-30T08:44:45;8.03;;;7.23;;
18140;SDS011;9196;49.194;12.526;2022-08-30T08:47:21;8.90;;;7.43;;
18140;SDS011;9196;49.194;12.526;2022-08-30T08:49:54;8.00;;;7.23;;
18140;SDS011;9196;49.194;12.526;2022-08-30T08:52:26;8.97;;;7.83;;
18140;SDS011;9196;49.194;12.526;2022-08-30T08:55:13;9.07;;;8.10;;
18140;SDS011;9196;49.194;12.526;2022-08-30T08:57:44;18.20;;;7.53;;
18140;SDS011;9196;49.194;12.526;2022-08-30T09:00:12;9.00;;;7.10;;
18140;SDS011;9196;49.194;12.526;2022-08-30T09:02:41;10.27;;;8.03;;
18140;SDS011;9196;49.194;12.526;2022-08-30T09:05:10;14.47;;;8.17;;
18140;SDS011;9196;49.194;12.526;2022-08-30T09:07:44;16.70;;;8.67;;
18140;SDS011;9196;49.194;12.526;2022-08-30T09:10:15;9.07;;;8.17;;
18140;SDS011;9196;49.194;12.526;2022-08-30T09:12:43;12.33;;;7.60;;
18140;SDS011;9196;49.194;12.526;2022-08-30T09:15:14;12.30;;;8.43;;
18140;SDS011;9196;49.194;12.526;2022-08-30T09:17:52;9.43;;;7.90;;
18140;SDS011;9196;49.194;12.526;2022-08-30T09:20:28;14.47;;;8.03;;
18140;SDS011;9196;49.194;12.526;2022-08-30T09:22:57;8.03;;;7.27;;
18140;SDS011;9196;49.194;12.526;2022-08-30T09:25:35;9.50;;;8.30;;
18140;SDS011;9196;49.194;12.526;2022-08-30T09:28:07;14.93;;;8.30;;
18140;SDS011;9196;49.194;12.526;2022-08-30T09:30:36;14.10;;;8.00;;
18140;SDS011;9196;49.194;12.526;2022-08-30T09:33:06;10.03;;;8.20;;
18140;SDS011;9196;49.194;12.526;2022-08-30T09:35:45;14.10;;;8.60;;
18140;SDS011;9196;49.194;12.526;2022-08-30T09:38:15;12.53;;;8.00;;
18140;SDS011;9196;49.194;12.526;2022-08-30T09:40:46;11.73;;;8.43;;
18140;SDS011;9196;49.194;12.526;2022-08-30T09:43:18;9.80;;;7.53;;
18140;SDS011;9196;49.194;12.526;2022-08-30T09:45:48;10.60;;;8.20;;
18140;SDS011;9196;49.194;12.526;2022-08-30T09:48:33;10.33;;;7.50;;
18140;SDS011;9196;49.194;12.526;2022-08-30T09:54:05;9.83;;;8.77;;
18140;SDS011;9196;49.194;12.526;2022-08-30T09:56:42;12.23;;;7.90;;
18140;SDS011;9196;49.194;12.526;2022-08-30T09:59:19;11.40;;;7.73;;
18140;SDS011;9196;49.194;12.526;2022-08-30T10:01:58;12.20;;;8.23;;
18140;SDS011;9196;49.194;12.526;2022-08-30T10:04:32;19.07;;;8.93;;
18140;SDS011;9196;49.194;12.526;2022-08-30T10:07:09;8.17;;;7.40;;
18140;SDS011;9196;49.194;12.526;2022-08-30T10:09:41;9.03;;;8.20;;
18140;SDS011;9196;49.194;12.526;2022-08-30T10:12:17;11.33;;;7.20;;
18140;SDS011;9196;49.194;12.526;2022-08-30T10:14:55;10.10;;;8.20;;
18140;SDS011;9196;49.194;12.526;2022-08-30T10:17:37;10.13;;;7.80;;
18140;SDS011;9196;49.194;12.526;2022-08-30T10:20:18;9.37;;;7.70;;
18140;SDS011;9196;49.194;12.526;2022-08-30T10:22:49;10.23;;;7.53;;
18140;SDS011;9196;49.194;12.526;2022-08-30T10:25:22;11.70;;;8.00;;
18140;SDS011;9196;49.194;12.526;2022-08-30T10:27:53;8.73;;;7.40;;
18140;SDS011;9196;49.194;12.526;2022-08-30T10:30:23;11.00;;;7.43;;
18140;SDS011;9196;49.194;12.526;2022-08-30T10:32:51;8.90;;;7.50;;
18140;SDS011;9196;49.194;12.526;2022-08-30T10:35:25;8.43;;;7.33;;
18140;SDS011;9196;49.194;12.526;2022-08-30T10:37:58;10.50;;;7.33;;
18140;SDS011;9196;49.194;12.526;2022-08-30T10:40:30;9.23;;;7.53;;
18140;SDS011;9196;49.194;12.526;2022-08-30T10:43:20;15.57;;;8.70;;
18140;SDS011;9196;49.194;12.526;2022-08-30T10:45:50;9.27;;;7.93;;
18140;SDS011;9196;49.194;12.526;2022-08-30T10:48:22;8.10;;;7.30;;
18140;SDS011;9196;49.194;12.526;2022-08-30T10:50:55;8.27;;;7.17;;
18140;SDS011;9196;49.194;12.526;2022-08-30T10:53:31;7.67;;;6.47;;
18140;SDS011;9196;49.194;12.526;2022-08-30T10:56:06;7.13;;;6.53;;
18140;SDS011;9196;49.194;12.526;2022-08-30T10:58:35;7.27;;;6.47;;
18140;SDS011;9196;49.194;12.526;2022-08-30T11:01:08;6.23;;;5.73;;
18140;SDS011;9196;49.194;12.526;2022-08-30T11:04:00;9.87;;;6.57;;
18140;SDS011;9196;49.194;12.526;2022-08-30T11:06:44;8.47;;;7.10;;
18140;SDS011;9196;49.194;12.526;2022-08-30T11:09:20;7.03;;;6.43;;
18140;SDS011;9196;49.194;12.526;2022-08-30T11:12:18;8.97;;;7.03;;
18140;SDS011;9196;49.194;12.526;2022-08-30T11:14:53;10.63;;;7.27;;
18140;SDS011;9196;49.194;12.526;2022-08-30T11:17:22;10.80;;;7.27;;
18140;SDS011;9196;49.194;12.526;2022-08-30T11:19:51;11.03;;;8.70;;
18140;SDS011;9196;49.194;12.526;2022-08-30T11:22:22;8.90;;;7.60;;
18140;SDS011;9196;49.194;12.526;2022-08-30T11:25:06;8.90;;;6.73;;
18140;SDS011;9196;49.194;12.526;2022-08-30T11:27:40;13.00;;;7.67;;
18140;SDS011;9196;49.194;12.526;2022-08-30T11:36:09;9.50;;;8.60;;
18140;SDS011;9196;49.194;12.526;2022-08-30T11:38:58;17.10;;;8.60;;
18140;SDS011;9196;49.194;12.526;2022-08-30T11:41:29;8.40;;;7.50;;
18140;SDS011;9196;49.194;12.526;2022-08-30T11:46:53;11.93;;;7.30;;
18140;SDS011;9196;49.194;12.526;2022-08-30T11:52:19;7.27;;;6.70;;
18140;SDS011;9196;49.194;12.526;2022-08-30T11:58:15;8.30;;;7.50;;
18140;SDS011;9196;49.194;12.526;2022-08-30T12:03:43;8.63;;;7.47;;
18140;SDS011;9196;49.194;12.526;2022-08-30T12:18:26;12.23;;;6.67;;
18140;SDS011;9196;49.194;12.526;2022-08-30T12:21:01;8.50;;;6.90;;
18140;SDS011;9196;49.194;12.526;2022-08-30T12:23:36;8.70;;;7.17;;
18140;SDS011;9196;49.194;12.526;2022-08-30T12:26:19;8.57;;;6.90;;
18140;SDS011;9196;49.194;12.526;2022-08-30T12:29:05;8.47;;;6.47;;
18140;SDS011;9196;49.194;12.526;2022-08-30T12:31:42;8.30;;;5.93;;
18140;SDS011;9196;49.194;12.526;2022-08-30T12:34:18;11.30;;;5.10;;
18140;SDS011;9196;49.194;12.526;2022-08-30T12:36:49;6.07;;;5.57;;
18140;SDS011;9196;49.194;12.526;2022-08-30T12:39:19;7.10;;;6.40;;
18140;SDS011;9196;49.194;12.526;2022-08-30T12:41:48;5.93;;;5.07;;
18140;SDS011;9196;49.194;12.526;2022-08-30T12:44:16;6.67;;;5.97;;
18140;SDS011;9196;49.194;12.526;2022-08-30T12:46:46;5.87;;;5.30;;
18140;SDS011;9196;49.194;12.526;2022-08-30T12:49:14;6.97;;;6.17;;
18140;SDS011;9196;49.194;12.526;2022-08-30T12:51:44;7.37;;;5.57;;
18140;SDS011;9196;49.194;12.526;2022-08-30T12:54:15;10.17;;;5.57;;
18140;SDS011;9196;49.194;12.526;2022-08-30T12:56:52;4.83;;;4.40;;
18140;SDS011;9196;49.194;12.526;2022-08-30T13:02:13;5.73;;;5.33;;
18140;SDS011;9196;49.194;12.526;2022-08-30T13:04:41;5.20;;;4.70;;
18140;SDS011;9196;49.194;12.526;2022-08-30T13:07:22;5.70;;;5.10;;
18140;SDS011;9196;49.194;12.526;2022-08-30T13:10:04;4.90;;;4.50;;
18140;SDS011;9196;49.194;12.526;2022-08-30T13:12:35;5.53;;;5.10;;
18140;SDS011;9196;49.194;12.526;2022-08-30T13:15:16;4.80;;;4.37;;
18140;SDS011;9196;49.194;12.526;2022-08-30T13:17:45;4.30;;;4.00;;
18140;SDS011;9196;49.194;12.526;2022-08-30T13:20:20;5.53;;;4.60;;
18140;SDS011;9196;49.194;12.526;2022-08-30T13:23:00;4.40;;;4.10;;
18140;SDS011;9196;49.194;12.526;2022-08-30T13:25:29;7.97;;;4.77;;
18140;SDS011;9196;49.194;12.526;2022-08-30T13:27:56;5.70;;;4.87;;
18140;SDS011;9196;49.194;12.526;2022-08-30T13:30:24;5.23;;;4.83;;
18140;SDS011;9196;49.194;12.526;2022-08-30T13:32:51;6.23;;;4.70;;
18140;SDS011;9196;49.194;12.526;2022-08-30T13:35:18;5.33;;;5.03;;
18140;SDS011;9196;49.194;12.526;2022-08-30T13:37:45;4.77;;;4.30;;
18140;SDS011;9196;49.194;12.526;2022-08-30T13:40:14;5.50;;;4.47;;
18140;SDS011;9196;49.194;12.526;2022-08-30T13:42:41;4.40;;;4.00;;
18140;SDS011;9196;49.194;12.526;2022-08-30T13:45:09;7.40;;;4.80;;
18140;SDS011;9196;49.194;12.526;2022-08-30T13:47:37;4.70;;;4.40;;
18140;SDS011;9196;49.194;12.526;2022-08-30T13:50:04;10.13;;;4.50;;
18140;SDS011;9196;49.194;12.526;2022-08-30T13:52:32;5.33;;;4.83;;
18140;SDS011;9196;49.194;12.526;2022-08-30T13:54:59;6.07;;;4.90;;
18140;SDS011;9196;49.194;12.526;2022-08-30T13:57:28;5.13;;;4.73;;
18140;SDS011;9196;49.194;12.526;2022-08-30T13:59:56;6.07;;;5.40;;
18140;SDS011;9196;49.194;12.526;2022-08-30T14:02:23;5.83;;;4.83;;
18140;SDS011;9196;49.194;12.526;2022-08-30T14:04:50;5.23;;;4.73;;
18140;SDS011;9196;49.194;12.526;2022-08-30T14:07:17;9.73;;;4.93;;
18140;SDS011;9196;49.194;12.526;2022-08-30T14:09:44;9.43;;;5.40;;
18140;SDS011;9196;49.194;12.526;2022-08-30T14:12:11;6.20;;;5.70;;
18140;SDS011;9196;49.194;12.526;2022-08-30T14:14:39;5.90;;;5.40;;
18140;SDS011;9196;49.194;12.526;2022-08-30T14:17:06;5.97;;;5.47;;
18140;SDS011;9196;49.194;12.526;2022-08-30T14:19:33;5.90;;;5.40;;
18140;SDS011;9196;49.194;12.526;2022-08-30T14:21:59;5.97;;;4.80;;
18140;SDS011;9196;49.194;12.526;2022-08-30T14:24:26;7.83;;;5.63;;
18140;SDS011;9196;49.194;12.526;2022-08-30T14:26:53;10.60;;;6.37;;
18140;SDS011;9196;49.194;12.526;2022-08-30T14:29:20;5.87;;;5.37;;
18140;SDS011;9196;49.194;12.526;2022-08-30T14:31:51;5.53;;;5.13;;
18140;SDS011;9196;49.194;12.526;2022-08-30T14:34:18;6.53;;;5.70;;
18140;SDS011;9196;49.194;12.526;2022-08-30T14:36:45;11.50;;;5.80;;
18140;SDS011;9196;49.194;12.526;2022-08-30T14:39:13;6.67;;;6.07;;
18140;SDS011;9196;49.194;12.526;2022-08-30T14:41:46;10.50;;;5.87;;
18140;SDS011;9196;49.194;12.526;2022-08-30T14:44:15;4.97;;;4.53;;
18140;SDS011;9196;49.194;12.526;2022-08-30T14:46:42;8.43;;;5.50;;
18140;SDS011;9196;49.194;12.526;2022-08-30T14:49:11;5.03;;;4.60;;
18140;SDS011;9196;49.194;12.526;2022-08-30T14:51:38;6.07;;;5.57;;
18140;SDS011;9196;49.194;12.526;2022-08-30T14:54:05;7.00;;;4.77;;
18140;SDS011;9196;49.194;12.526;2022-08-30T14:56:33;5.80;;;4.87;;
18140;SDS011;9196;49.194;12.526;2022-08-30T14:59:01;7.13;;;5.10;;
18140;SDS011;9196;49.194;12.526;2022-08-30T15:01:28;7.47;;;5.10;;
18140;SDS011;9196;49.194;12.526;2022-08-30T15:03:56;8.73;;;5.60;;
18140;SDS011;9196;49.194;12.526;2022-08-30T15:06:25;6.43;;;4.53;;
18140;SDS011;9196;49.194;12.526;2022-08-30T15:08:52;5.47;;;4.97;;
18140;SDS011;9196;49.194;12.526;2022-08-30T15:11:19;7.83;;;4.97;;
18140;SDS011;9196;49.194;12.526;2022-08-30T15:13:48;5.33;;;4.93;;
18140;SDS011;9196;49.194;12.526;2022-08-30T15:16:16;6.17;;;4.73;;
18140;SDS011;9196;49.194;12.526;2022-08-30T15:18:44;7.67;;;5.20;;
18140;SDS011;9196;49.194;12.526;2022-08-30T15:21:11;5.50;;;5.10;;
18140;SDS011;9196;49.194;12.526;2022-08-30T15:23:39;5.57;;;4.40;;
18140;SDS011;9196;49.194;12.526;2022-08-30T15:26:08;6.93;;;4.50;;
18140;SDS011;9196;49.194;12.526;2022-08-30T15:28:35;10.70;;;5.80;;
18140;SDS011;9196;49.194;12.526;2022-08-30T15:31:02;5.70;;;4.80;;